sensor_id;sensor_type;location;lat;lon;timestamp;temperature;humidity
10336;DHT22;5213;53.548;9.930;2023-09-18T00:02:12;18.70;99.90
10336;DHT22;5213;53.548;9.930;2023-09-18T00:04:37;18.70;99.90
10336;DHT22;5213;53.548;9.930;2023-09-18T00:07:03;18.60;99.90
10336;DHT22;5213;53.548;9.930;2023-09-18T00:09:28;18.70;99.90
10336;DHT22;5213;53.548;9.930;2023-09-18T00:11:54;18.70;99.90
10336;DHT22;5213;53.548;9.930;2023-09-18T00:14:20;18.60;99.90
10336;DHT22;5213;53.548;9.930;2023-09-18T00:16:45;18.60;99.90
10336;DHT22;5213;53.548;9.930;2023-09-18T00:19:11;18.60;99.90
10336;DHT22;5213;53.548;9.930;2023-09-18T00:21:37;18.60;99.90
10336;DHT22;5213;53.548;9.930;2023-09-18T00:24:03;18.60;99.90
10336;DHT22;5213;53.548;9.930;2023-09-18T00:26:29;18.50;99.90
10336;DHT22;5213;53.548;9.930;2023-09-18T00:28:54;18.50;99.90
10336;DHT22;5213;53.548;9.930;2023-09-18T00:31:20;18.50;99.90
10336;DHT22;5213;53.548;9.930;2023-09-18T00:33:46;18.60;99.90
10336;DHT22;5213;53.548;9.930;2023-09-18T00:36:11;18.60;99.90
10336;DHT22;5213;53.548;9.930;2023-09-18T00:38:37;18.60;99.90
10336;DHT22;5213;53.548;9.930;2023-09-18T00:41:03;18.70;99.90
10336;DHT22;5213;53.548;9.930;2023-09-18T00:43:29;18.60;99.90
10336;DHT22;5213;53.548;9.930;2023-09-18T00:45:54;18.60;99.90
10336;DHT22;5213;53.548;9.930;2023-09-18T00:48:21;18.60;99.90
10336;DHT22;5213;53.548;9.930;2023-09-18T00:50:48;18.50;99.90
10336;DHT22;5213;53.548;9.930;2023-09-18T00:53:17;18.50;99.90
10336;DHT22;5213;53.548;9.930;2023-09-18T00:55:44;18.50;99.90
10336;DHT22;5213;53.548;9.930;2023-09-18T00:58:10;18.50;99.90
10336;DHT22;5213;53.548;9.930;2023-09-18T01:00:36;18.40;99.90
10336;DHT22;5213;53.548;9.930;2023-09-18T01:03:03;18.40;99.90
10336;DHT22;5213;53.548;9.930;2023-09-18T01:05:34;18.30;99.90
10336;DHT22;5213;53.548;9.930;2023-09-18T01:08:01;18.30;99.90
10336;DHT22;5213;53.548;9.930;2023-09-18T01:13:23;18.30;99.90
10336;DHT22;5213;53.548;9.930;2023-09-18T01:15:55;18.30;99.90
10336;DHT22;5213;53.548;9.930;2023-09-18T01:18:22;18.20;99.90
10336;DHT22;5213;53.548;9.930;2023-09-18T01:20:47;18.20;99.90
10336;DHT22;5213;53.548;9.930;2023-09-18T01:23:13;18.10;99.90
10336;DHT22;5213;53.548;9.930;2023-09-18T01:25:39;18.10;99.90
10336;DHT22;5213;53.548;9.930;2023-09-18T01:28:04;18.10;99.90
10336;DHT22;5213;53.548;9.930;2023-09-18T01:30:30;18.10;99.90
10336;DHT22;5213;53.548;9.930;2023-09-18T01:32:57;18.00;99.90
10336;DHT22;5213;53.548;9.930;2023-09-18T01:35:26;18.00;99.90
10336;DHT22;5213;53.548;9.930;2023-09-18T01:37:56;18.10;99.90
10336;DHT22;5213;53.548;9.930;2023-09-18T01:40:23;18.10;99.90
10336;DHT22;5213;53.548;9.930;2023-09-18T01:42:49;18.00;99.90
10336;DHT22;5213;53.548;9.930;2023-09-18T01:45:14;18.10;99.90
10336;DHT22;5213;53.548;9.930;2023-09-18T01:47:40;18.00;99.90
10336;DHT22;5213;53.548;9.930;2023-09-18T01:50:06;18.10;99.90
10336;DHT22;5213;53.548;9.930;2023-09-18T01:52:32;18.20;99.90
10336;DHT22;5213;53.548;9.930;2023-09-18T01:55:00;18.20;99.90
10336;DHT22;5213;53.548;9.930;2023-09-18T01:57:25;18.10;99.90
10336;DHT22;5213;53.548;9.930;2023-09-18T01:59:51;18.10;99.90
10336;DHT22;5213;53.548;9.930;2023-09-18T02:02:16;18.00;99.90
10336;DHT22;5213;53.548;9.930;2023-09-18T02:04:42;18.00;99.90
10336;DHT22;5213;53.548;9.930;2023-09-18T02:07:09;18.00;99.90
10336;DHT22;5213;53.548;9.930;2023-09-18T02:09:34;18.00;99.90
10336;DHT22;5213;53.548;9.930;2023-09-18T02:12:00;18.10;99.90
10336;DHT22;5213;53.548;9.930;2023-09-18T02:14:26;18.00;99.90
10336;DHT22;5213;53.548;9.930;2023-09-18T02:16:51;18.20;99.90
10336;DHT22;5213;53.548;9.930;2023-09-18T02:19:17;18.20;99.90
10336;DHT22;5213;53.548;9.930;2023-09-18T02:21:43;18.20;99.90
10336;DHT22;5213;53.548;9.930;2023-09-18T02:24:09;18.20;99.90
10336;DHT22;5213;53.548;9.930;2023-09-18T02:26:35;18.20;99.90
10336;DHT22;5213;53.548;9.930;2023-09-18T02:29:09;18.20;99.90
10336;DHT22;5213;53.548;9.930;2023-09-18T02:31:39;18.20;99.90
10336;DHT22;5213;53.548;9.930;2023-09-18T02:34:05;18.10;99.90
10336;DHT22;5213;53.548;9.930;2023-09-18T02:36:31;18.10;99.90
10336;DHT22;5213;53.548;9.930;2023-09-18T02:38:56;18.00;99.90
10336;DHT22;5213;53.548;9.930;2023-09-18T02:41:22;18.00;99.90
10336;DHT22;5213;53.548;9.930;2023-09-18T02:43:47;17.90;99.90
10336;DHT22;5213;53.548;9.930;2023-09-18T02:46:13;17.90;99.90
10336;DHT22;5213;53.548;9.930;2023-09-18T02:48:38;17.90;99.90
10336;DHT22;5213;53.548;9.930;2023-09-18T02:51:05;17.80;99.90
10336;DHT22;5213;53.548;9.930;2023-09-18T02:53:31;17.80;99.90
10336;DHT22;5213;53.548;9.930;2023-09-18T02:55:58;17.80;99.90
10336;DHT22;5213;53.548;9.930;2023-09-18T02:58:24;17.80;99.90
10336;DHT22;5213;53.548;9.930;2023-09-18T03:00:52;17.80;99.90
10336;DHT22;5213;53.548;9.930;2023-09-18T03:03:18;17.70;99.90
10336;DHT22;5213;53.548;9.930;2023-09-18T03:05:44;17.70;99.90
10336;DHT22;5213;53.548;9.930;2023-09-18T03:08:11;17.70;99.90
10336;DHT22;5213;53.548;9.930;2023-09-18T03:10:38;17.60;99.90
10336;DHT22;5213;53.548;9.930;2023-09-18T03:13:09;17.60;99.90
10336;DHT22;5213;53.548;9.930;2023-09-18T03:15:35;17.60;99.90
10336;DHT22;5213;53.548;9.930;2023-09-18T03:18:02;17.60;99.90
10336;DHT22;5213;53.548;9.930;2023-09-18T03:20:28;17.60;99.90
10336;DHT22;5213;53.548;9.930;2023-09-18T03:22:57;17.50;99.90
10336;DHT22;5213;53.548;9.930;2023-09-18T03:25:23;17.50;99.90
10336;DHT22;5213;53.548;9.930;2023-09-18T03:27:51;17.50;99.90
10336;DHT22;5213;53.548;9.930;2023-09-18T03:30:17;17.40;99.90
10336;DHT22;5213;53.548;9.930;2023-09-18T03:32:44;17.50;99.90
10336;DHT22;5213;53.548;9.930;2023-09-18T03:35:10;17.50;99.90
10336;DHT22;5213;53.548;9.930;2023-09-18T03:37:46;17.40;99.90
10336;DHT22;5213;53.548;9.930;2023-09-18T03:40:12;17.40;99.90
10336;DHT22;5213;53.548;9.930;2023-09-18T03:42:38;17.40;99.90
10336;DHT22;5213;53.548;9.930;2023-09-18T03:45:06;17.30;1.00
10336;DHT22;5213;53.548;9.930;2023-09-18T03:47:33;17.30;1.00
10336;DHT22;5213;53.548;9.930;2023-09-18T03:49:59;17.30;1.00
10336;DHT22;5213;53.548;9.930;2023-09-18T03:52:24;17.20;1.00
10336;DHT22;5213;53.548;9.930;2023-09-18T03:54:50;17.20;1.00
10336;DHT22;5213;53.548;9.930;2023-09-18T03:57:16;17.20;1.00
10336;DHT22;5213;53.548;9.930;2023-09-18T03:59:42;17.20;1.00
10336;DHT22;5213;53.548;9.930;2023-09-18T04:02:07;17.20;1.00
10336;DHT22;5213;53.548;9.930;2023-09-18T04:04:33;17.20;1.00
10336;DHT22;5213;53.548;9.930;2023-09-18T04:06:59;17.30;1.00
10336;DHT22;5213;53.548;9.930;2023-09-18T04:09:24;17.30;1.00
10336;DHT22;5213;53.548;9.930;2023-09-18T04:11:50;17.30;1.00
10336;DHT22;5213;53.548;9.930;2023-09-18T04:14:15;17.30;1.00
10336;DHT22;5213;53.548;9.930;2023-09-18T04:16:41;17.20;1.00
10336;DHT22;5213;53.548;9.930;2023-09-18T04:19:08;17.20;1.00
10336;DHT22;5213;53.548;9.930;2023-09-18T04:21:35;17.20;1.00
10336;DHT22;5213;53.548;9.930;2023-09-18T04:24:01;17.20;1.00
10336;DHT22;5213;53.548;9.930;2023-09-18T04:26:27;17.20;1.00
10336;DHT22;5213;53.548;9.930;2023-09-18T04:28:57;17.10;1.00
10336;DHT22;5213;53.548;9.930;2023-09-18T04:31:23;17.10;1.00
10336;DHT22;5213;53.548;9.930;2023-09-18T04:33:48;17.10;1.00
10336;DHT22;5213;53.548;9.930;2023-09-18T04:36:15;17.00;1.00
10336;DHT22;5213;53.548;9.930;2023-09-18T04:38:40;17.00;1.00
10336;DHT22;5213;53.548;9.930;2023-09-18T04:41:06;16.90;1.00
10336;DHT22;5213;53.548;9.930;2023-09-18T04:43:33;16.90;1.00
10336;DHT22;5213;53.548;9.930;2023-09-18T04:46:00;17.00;1.00
10336;DHT22;5213;53.548;9.930;2023-09-18T04:48:27;17.10;1.00
10336;DHT22;5213;53.548;9.930;2023-09-18T04:50:53;17.10;1.00
10336;DHT22;5213;53.548;9.930;2023-09-18T04:53:19;17.00;1.00
10336;DHT22;5213;53.548;9.930;2023-09-18T04:55:45;17.10;1.00
10336;DHT22;5213;53.548;9.930;2023-09-18T04:58:14;17.20;1.00
10336;DHT22;5213;53.548;9.930;2023-09-18T05:00:41;17.20;1.00
10336;DHT22;5213;53.548;9.930;2023-09-18T05:03:06;17.30;1.00
10336;DHT22;5213;53.548;9.930;2023-09-18T05:05:34;17.50;1.00
10336;DHT22;5213;53.548;9.930;2023-09-18T05:08:01;17.50;1.00
10336;DHT22;5213;53.548;9.930;2023-09-18T05:10:26;17.40;1.00
10336;DHT22;5213;53.548;9.930;2023-09-18T05:12:52;17.50;1.00
10336;DHT22;5213;53.548;9.930;2023-09-18T05:15:24;17.40;1.00
10336;DHT22;5213;53.548;9.930;2023-09-18T05:17:51;17.40;1.00
10336;DHT22;5213;53.548;9.930;2023-09-18T05:20:21;17.40;1.00
10336;DHT22;5213;53.548;9.930;2023-09-18T05:22:50;17.50;1.00
10336;DHT22;5213;53.548;9.930;2023-09-18T05:25:18;17.50;1.00
10336;DHT22;5213;53.548;9.930;2023-09-18T05:27:44;17.60;1.00
10336;DHT22;5213;53.548;9.930;2023-09-18T05:30:21;17.70;1.00
10336;DHT22;5213;53.548;9.930;2023-09-18T05:32:48;17.70;1.00
10336;DHT22;5213;53.548;9.930;2023-09-18T05:35:14;17.80;1.00
10336;DHT22;5213;53.548;9.930;2023-09-18T05:37:40;17.90;99.90
10336;DHT22;5213;53.548;9.930;2023-09-18T05:40:10;17.90;99.90
10336;DHT22;5213;53.548;9.930;2023-09-18T05:42:37;18.00;99.90
10336;DHT22;5213;53.548;9.930;2023-09-18T05:45:03;18.00;99.90
10336;DHT22;5213;53.548;9.930;2023-09-18T05:47:32;18.00;99.90
10336;DHT22;5213;53.548;9.930;2023-09-18T05:49:58;18.10;99.90
10336;DHT22;5213;53.548;9.930;2023-09-18T05:52:24;18.10;99.90
10336;DHT22;5213;53.548;9.930;2023-09-18T05:54:50;18.20;99.90
10336;DHT22;5213;53.548;9.930;2023-09-18T05:57:17;18.20;99.90
10336;DHT22;5213;53.548;9.930;2023-09-18T05:59:43;18.20;99.90
10336;DHT22;5213;53.548;9.930;2023-09-18T06:02:11;18.30;99.90
10336;DHT22;5213;53.548;9.930;2023-09-18T06:04:37;18.40;99.90
10336;DHT22;5213;53.548;9.930;2023-09-18T06:07:04;18.50;99.90
10336;DHT22;5213;53.548;9.930;2023-09-18T06:09:29;18.70;99.90
10336;DHT22;5213;53.548;9.930;2023-09-18T06:11:55;18.80;99.90
10336;DHT22;5213;53.548;9.930;2023-09-18T06:14:21;18.90;99.90
10336;DHT22;5213;53.548;9.930;2023-09-18T06:16:46;19.00;99.90
10336;DHT22;5213;53.548;9.930;2023-09-18T06:19:12;19.00;99.90
10336;DHT22;5213;53.548;9.930;2023-09-18T06:21:38;19.10;99.90
10336;DHT22;5213;53.548;9.930;2023-09-18T06:24:04;19.10;99.90
10336;DHT22;5213;53.548;9.930;2023-09-18T06:26:30;19.10;99.90
10336;DHT22;5213;53.548;9.930;2023-09-18T06:28:55;19.10;99.90
10336;DHT22;5213;53.548;9.930;2023-09-18T06:31:21;19.10;99.90
10336;DHT22;5213;53.548;9.930;2023-09-18T06:33:48;19.10;99.90
10336;DHT22;5213;53.548;9.930;2023-09-18T06:36:14;19.10;99.90
10336;DHT22;5213;53.548;9.930;2023-09-18T06:38:39;19.10;99.90
10336;DHT22;5213;53.548;9.930;2023-09-18T06:41:05;19.20;99.90
10336;DHT22;5213;53.548;9.930;2023-09-18T06:43:30;19.30;99.90
10336;DHT22;5213;53.548;9.930;2023-09-18T06:45:56;19.40;99.90
10336;DHT22;5213;53.548;9.930;2023-09-18T06:48:24;19.50;97.00
10336;DHT22;5213;53.548;9.930;2023-09-18T06:50:49;19.50;91.40
10336;DHT22;5213;53.548;9.930;2023-09-18T06:53:16;19.60;76.00
10336;DHT22;5213;53.548;9.930;2023-09-18T06:55:41;19.70;60.30
10336;DHT22;5213;53.548;9.930;2023-09-18T06:58:07;19.80;45.60
10336;DHT22;5213;53.548;9.930;2023-09-18T07:00:33;19.90;21.10
10336;DHT22;5213;53.548;9.930;2023-09-18T07:02:58;19.90;14.90
10336;DHT22;5213;53.548;9.930;2023-09-18T07:05:24;20.10;1.00
10336;DHT22;5213;53.548;9.930;2023-09-18T07:07:49;20.20;1.00
10336;DHT22;5213;53.548;9.930;2023-09-18T07:10:15;20.30;1.00
10336;DHT22;5213;53.548;9.930;2023-09-18T07:12:41;20.40;1.00
10336;DHT22;5213;53.548;9.930;2023-09-18T07:15:07;20.50;1.00
10336;DHT22;5213;53.548;9.930;2023-09-18T07:17:33;20.70;1.00
10336;DHT22;5213;53.548;9.930;2023-09-18T07:20:00;20.80;1.00
10336;DHT22;5213;53.548;9.930;2023-09-18T07:22:26;21.00;1.00
10336;DHT22;5213;53.548;9.930;2023-09-18T07:24:52;21.10;1.00
10336;DHT22;5213;53.548;9.930;2023-09-18T07:27:17;21.00;1.00
10336;DHT22;5213;53.548;9.930;2023-09-18T07:29:43;21.20;1.00
10336;DHT22;5213;53.548;9.930;2023-09-18T07:32:09;21.50;1.00
10336;DHT22;5213;53.548;9.930;2023-09-18T07:34:35;21.50;1.00
10336;DHT22;5213;53.548;9.930;2023-09-18T07:37:01;21.50;1.00
10336;DHT22;5213;53.548;9.930;2023-09-18T07:39:26;21.50;1.00
10336;DHT22;5213;53.548;9.930;2023-09-18T07:41:52;21.50;1.00
10336;DHT22;5213;53.548;9.930;2023-09-18T07:44:21;21.40;1.00
10336;DHT22;5213;53.548;9.930;2023-09-18T07:46:47;21.50;1.00
10336;DHT22;5213;53.548;9.930;2023-09-18T07:49:13;21.70;1.00
10336;DHT22;5213;53.548;9.930;2023-09-18T07:51:39;21.90;1.00
10336;DHT22;5213;53.548;9.930;2023-09-18T07:54:07;22.00;1.00
10336;DHT22;5213;53.548;9.930;2023-09-18T07:56:32;22.00;1.00
10336;DHT22;5213;53.548;9.930;2023-09-18T07:58:59;22.00;1.00
10336;DHT22;5213;53.548;9.930;2023-09-18T08:01:25;22.10;1.00
10336;DHT22;5213;53.548;9.930;2023-09-18T08:03:51;22.00;1.00
10336;DHT22;5213;53.548;9.930;2023-09-18T08:06:17;22.10;1.00
10336;DHT22;5213;53.548;9.930;2023-09-18T08:08:45;22.10;1.00
10336;DHT22;5213;53.548;9.930;2023-09-18T08:11:11;22.00;1.00
10336;DHT22;5213;53.548;9.930;2023-09-18T08:13:37;22.10;1.00
10336;DHT22;5213;53.548;9.930;2023-09-18T08:16:06;22.10;1.00
10336;DHT22;5213;53.548;9.930;2023-09-18T08:18:32;22.10;1.00
10336;DHT22;5213;53.548;9.930;2023-09-18T08:20:58;22.00;1.00
10336;DHT22;5213;53.548;9.930;2023-09-18T08:23:24;21.70;1.00
10336;DHT22;5213;53.548;9.930;2023-09-18T08:25:50;21.60;1.00
10336;DHT22;5213;53.548;9.930;2023-09-18T08:28:17;21.40;1.00
10336;DHT22;5213;53.548;9.930;2023-09-18T08:30:42;21.40;1.00
10336;DHT22;5213;53.548;9.930;2023-09-18T08:33:15;21.40;1.00
10336;DHT22;5213;53.548;9.930;2023-09-18T08:35:41;21.30;1.00
10336;DHT22;5213;53.548;9.930;2023-09-18T08:38:07;21.30;1.00
10336;DHT22;5213;53.548;9.930;2023-09-18T08:40:34;21.30;1.00
10336;DHT22;5213;53.548;9.930;2023-09-18T08:43:01;21.30;1.00
10336;DHT22;5213;53.548;9.930;2023-09-18T08:45:40;21.20;1.00
10336;DHT22;5213;53.548;9.930;2023-09-18T08:48:07;21.20;1.00
10336;DHT22;5213;53.548;9.930;2023-09-18T08:50:34;21.30;1.00
10336;DHT22;5213;53.548;9.930;2023-09-18T08:52:59;21.20;1.00
10336;DHT22;5213;53.548;9.930;2023-09-18T08:55:25;21.20;1.00
10336;DHT22;5213;53.548;9.930;2023-09-18T08:57:53;21.30;1.00
10336;DHT22;5213;53.548;9.930;2023-09-18T09:00:19;21.30;1.00
10336;DHT22;5213;53.548;9.930;2023-09-18T09:02:45;21.40;1.00
10336;DHT22;5213;53.548;9.930;2023-09-18T09:05:11;21.60;1.00
10336;DHT22;5213;53.548;9.930;2023-09-18T09:07:37;21.80;1.00
10336;DHT22;5213;53.548;9.930;2023-09-18T09:10:03;21.90;1.00
10336;DHT22;5213;53.548;9.930;2023-09-18T09:12:52;22.00;1.00
10336;DHT22;5213;53.548;9.930;2023-09-18T09:15:26;22.10;1.00
10336;DHT22;5213;53.548;9.930;2023-09-18T09:18:05;22.10;1.00
10336;DHT22;5213;53.548;9.930;2023-09-18T09:20:31;22.30;1.00
10336;DHT22;5213;53.548;9.930;2023-09-18T09:23:01;22.50;1.00
10336;DHT22;5213;53.548;9.930;2023-09-18T09:25:31;22.70;1.00
10336;DHT22;5213;53.548;9.930;2023-09-18T09:28:05;23.00;1.00
10336;DHT22;5213;53.548;9.930;2023-09-18T09:30:33;23.40;1.00
10336;DHT22;5213;53.548;9.930;2023-09-18T09:32:59;23.80;1.00
10336;DHT22;5213;53.548;9.930;2023-09-18T09:35:32;24.10;1.00
10336;DHT22;5213;53.548;9.930;2023-09-18T09:38:17;24.40;1.00
10336;DHT22;5213;53.548;9.930;2023-09-18T09:40:45;24.50;1.00
10336;DHT22;5213;53.548;9.930;2023-09-18T09:43:12;24.50;1.00
10336;DHT22;5213;53.548;9.930;2023-09-18T09:45:40;24.30;1.00
10336;DHT22;5213;53.548;9.930;2023-09-18T09:48:06;24.30;1.00
10336;DHT22;5213;53.548;9.930;2023-09-18T09:50:47;24.40;1.00
10336;DHT22;5213;53.548;9.930;2023-09-18T09:53:14;24.50;1.00
10336;DHT22;5213;53.548;9.930;2023-09-18T09:55:40;24.50;1.00
10336;DHT22;5213;53.548;9.930;2023-09-18T09:58:08;24.50;1.00
10336;DHT22;5213;53.548;9.930;2023-09-18T10:00:41;24.70;1.00
10336;DHT22;5213;53.548;9.930;2023-09-18T10:03:10;24.50;1.00
10336;DHT22;5213;53.548;9.930;2023-09-18T10:05:38;24.50;1.00
10336;DHT22;5213;53.548;9.930;2023-09-18T10:08:08;24.60;1.00
10336;DHT22;5213;53.548;9.930;2023-09-18T10:10:43;24.50;1.00
10336;DHT22;5213;53.548;9.930;2023-09-18T10:15:42;24.50;1.00
10336;DHT22;5213;53.548;9.930;2023-09-18T10:18:17;24.30;1.00
10336;DHT22;5213;53.548;9.930;2023-09-18T10:20:46;24.30;1.00
10336;DHT22;5213;53.548;9.930;2023-09-18T10:23:27;24.10;1.00
10336;DHT22;5213;53.548;9.930;2023-09-18T10:25:59;24.10;1.00
10336;DHT22;5213;53.548;9.930;2023-09-18T10:28:31;24.30;1.00
10336;DHT22;5213;53.548;9.930;2023-09-18T10:30:57;24.60;1.00
10336;DHT22;5213;53.548;9.930;2023-09-18T10:33:25;24.80;1.00
10336;DHT22;5213;53.548;9.930;2023-09-18T10:35:52;25.00;1.00
10336;DHT22;5213;53.548;9.930;2023-09-18T10:38:18;25.10;1.00
10336;DHT22;5213;53.548;9.930;2023-09-18T10:40:46;25.10;99.90
10336;DHT22;5213;53.548;9.930;2023-09-18T10:43:15;25.00;99.90
10336;DHT22;5213;53.548;9.930;2023-09-18T10:45:42;25.00;99.90
10336;DHT22;5213;53.548;9.930;2023-09-18T10:48:09;25.10;99.90
10336;DHT22;5213;53.548;9.930;2023-09-18T10:50:39;25.10;99.90
10336;DHT22;5213;53.548;9.930;2023-09-18T10:53:05;25.10;99.90
10336;DHT22;5213;53.548;9.930;2023-09-18T10:55:31;25.30;99.90
10336;DHT22;5213;53.548;9.930;2023-09-18T10:57:59;25.40;99.90
10336;DHT22;5213;53.548;9.930;2023-09-18T11:00:27;25.50;99.90
10336;DHT22;5213;53.548;9.930;2023-09-18T11:02:54;25.30;99.90
10336;DHT22;5213;53.548;9.930;2023-09-18T11:05:34;25.30;99.90
10336;DHT22;5213;53.548;9.930;2023-09-18T11:11:02;26.00;99.90
10336;DHT22;5213;53.548;9.930;2023-09-18T11:13:39;26.10;99.90
10336;DHT22;5213;53.548;9.930;2023-09-18T11:21:29;25.70;99.90
10336;DHT22;5213;53.548;9.930;2023-09-18T11:24:05;25.40;99.90
10336;DHT22;5213;53.548;9.930;2023-09-18T11:26:36;25.30;99.90
10336;DHT22;5213;53.548;9.930;2023-09-18T11:29:04;25.50;99.90
10336;DHT22;5213;53.548;9.930;2023-09-18T11:31:50;25.60;99.90
10336;DHT22;5213;53.548;9.930;2023-09-18T11:36:49;25.60;99.90
10336;DHT22;5213;53.548;9.930;2023-09-18T11:39:33;25.50;99.90
10336;DHT22;5213;53.548;9.930;2023-09-18T11:42:17;25.40;99.90
10336;DHT22;5213;53.548;9.930;2023-09-18T11:44:43;25.30;99.90
10336;DHT22;5213;53.548;9.930;2023-09-18T11:47:17;25.50;99.90
10336;DHT22;5213;53.548;9.930;2023-09-18T11:52:16;25.10;99.90
10336;DHT22;5213;53.548;9.930;2023-09-18T11:54:43;25.00;99.90
10336;DHT22;5213;53.548;9.930;2023-09-18T11:57:11;24.90;99.90
10336;DHT22;5213;53.548;9.930;2023-09-18T11:59:40;24.90;99.90
10336;DHT22;5213;53.548;9.930;2023-09-18T12:02:09;24.80;99.90
10336;DHT22;5213;53.548;9.930;2023-09-18T12:04:36;24.90;99.90
10336;DHT22;5213;53.548;9.930;2023-09-18T12:07:05;24.80;99.90
10336;DHT22;5213;53.548;9.930;2023-09-18T12:09:32;24.70;99.90
10336;DHT22;5213;53.548;9.930;2023-09-18T12:12:02;24.70;99.90
10336;DHT22;5213;53.548;9.930;2023-09-18T12:14:31;24.80;99.90
10336;DHT22;5213;53.548;9.930;2023-09-18T12:17:01;25.00;99.90
10336;DHT22;5213;53.548;9.930;2023-09-18T12:19:30;25.00;99.90
10336;DHT22;5213;53.548;9.930;2023-09-18T12:21:56;24.80;99.90
10336;DHT22;5213;53.548;9.930;2023-09-18T12:24:23;24.80;99.90
10336;DHT22;5213;53.548;9.930;2023-09-18T12:26:49;24.90;99.90
10336;DHT22;5213;53.548;9.930;2023-09-18T12:29:15;25.10;99.90
10336;DHT22;5213;53.548;9.930;2023-09-18T12:31:42;25.40;99.90
10336;DHT22;5213;53.548;9.930;2023-09-18T12:34:21;25.50;99.90
10336;DHT22;5213;53.548;9.930;2023-09-18T12:36:48;25.50;99.90
10336;DHT22;5213;53.548;9.930;2023-09-18T12:39:14;25.50;99.90
10336;DHT22;5213;53.548;9.930;2023-09-18T12:41:45;25.80;99.90
10336;DHT22;5213;53.548;9.930;2023-09-18T12:44:11;25.80;99.90
10336;DHT22;5213;53.548;9.930;2023-09-18T12:46:38;25.80;99.90
10336;DHT22;5213;53.548;9.930;2023-09-18T12:51:41;25.40;99.90
10336;DHT22;5213;53.548;9.930;2023-09-18T12:54:07;25.40;99.90
10336;DHT22;5213;53.548;9.930;2023-09-18T12:56:32;25.30;99.90
10336;DHT22;5213;53.548;9.930;2023-09-18T12:58:58;25.50;99.90
10336;DHT22;5213;53.548;9.930;2023-09-18T13:01:24;25.80;99.90
10336;DHT22;5213;53.548;9.930;2023-09-18T13:03:53;26.10;99.90
10336;DHT22;5213;53.548;9.930;2023-09-18T13:06:20;26.30;99.90
10336;DHT22;5213;53.548;9.930;2023-09-18T13:08:47;26.40;99.90
10336;DHT22;5213;53.548;9.930;2023-09-18T13:11:13;26.20;99.90
10336;DHT22;5213;53.548;9.930;2023-09-18T13:13:42;26.00;99.90
10336;DHT22;5213;53.548;9.930;2023-09-18T13:16:09;26.00;99.90
10336;DHT22;5213;53.548;9.930;2023-09-18T13:18:35;25.90;99.90
10336;DHT22;5213;53.548;9.930;2023-09-18T13:21:09;25.60;99.90
10336;DHT22;5213;53.548;9.930;2023-09-18T13:23:36;25.30;99.90
10336;DHT22;5213;53.548;9.930;2023-09-18T13:26:03;25.00;99.90
10336;DHT22;5213;53.548;9.930;2023-09-18T13:28:29;24.80;99.90
10336;DHT22;5213;53.548;9.930;2023-09-18T13:30:56;24.50;99.90
10336;DHT22;5213;53.548;9.930;2023-09-18T13:33:23;24.30;99.90
10336;DHT22;5213;53.548;9.930;2023-09-18T13:35:51;24.30;99.90
10336;DHT22;5213;53.548;9.930;2023-09-18T13:38:18;24.30;99.90
10336;DHT22;5213;53.548;9.930;2023-09-18T13:40:46;24.20;99.90
10336;DHT22;5213;53.548;9.930;2023-09-18T13:43:13;24.10;99.90
10336;DHT22;5213;53.548;9.930;2023-09-18T13:45:44;24.20;99.90
10336;DHT22;5213;53.548;9.930;2023-09-18T13:48:09;24.20;99.90
10336;DHT22;5213;53.548;9.930;2023-09-18T13:50:36;24.30;99.90
10336;DHT22;5213;53.548;9.930;2023-09-18T13:53:02;24.30;99.90
10336;DHT22;5213;53.548;9.930;2023-09-18T13:55:32;24.20;99.90
10336;DHT22;5213;53.548;9.930;2023-09-18T13:57:58;24.30;99.90
10336;DHT22;5213;53.548;9.930;2023-09-18T14:00:23;24.30;99.90
10336;DHT22;5213;53.548;9.930;2023-09-18T14:02:51;24.40;99.90
10336;DHT22;5213;53.548;9.930;2023-09-18T14:05:16;24.30;99.90
10336;DHT22;5213;53.548;9.930;2023-09-18T14:07:42;24.30;99.90
10336;DHT22;5213;53.548;9.930;2023-09-18T14:10:09;24.30;99.90
10336;DHT22;5213;53.548;9.930;2023-09-18T14:12:36;24.30;99.90
10336;DHT22;5213;53.548;9.930;2023-09-18T14:15:04;24.30;99.90
10336;DHT22;5213;53.548;9.930;2023-09-18T14:17:30;24.30;99.90
10336;DHT22;5213;53.548;9.930;2023-09-18T14:19:56;24.40;99.90
10336;DHT22;5213;53.548;9.930;2023-09-18T14:22:21;24.60;99.90
10336;DHT22;5213;53.548;9.930;2023-09-18T14:24:47;24.50;99.90
10336;DHT22;5213;53.548;9.930;2023-09-18T14:27:13;24.60;99.90
10336;DHT22;5213;53.548;9.930;2023-09-18T14:29:39;24.60;99.90
10336;DHT22;5213;53.548;9.930;2023-09-18T14:32:05;24.80;99.90
10336;DHT22;5213;53.548;9.930;2023-09-18T14:34:34;24.90;99.90
10336;DHT22;5213;53.548;9.930;2023-09-18T14:37:01;25.00;99.90
10336;DHT22;5213;53.548;9.930;2023-09-18T14:39:32;25.00;99.90
10336;DHT22;5213;53.548;9.930;2023-09-18T14:41:58;25.10;99.90
10336;DHT22;5213;53.548;9.930;2023-09-18T14:44:25;25.20;99.90
10336;DHT22;5213;53.548;9.930;2023-09-18T14:46:50;25.20;99.90
10336;DHT22;5213;53.548;9.930;2023-09-18T14:49:16;25.20;99.90
10336;DHT22;5213;53.548;9.930;2023-09-18T14:51:42;25.10;99.90
10336;DHT22;5213;53.548;9.930;2023-09-18T14:54:07;24.90;99.90
10336;DHT22;5213;53.548;9.930;2023-09-18T14:56:33;24.60;99.90
10336;DHT22;5213;53.548;9.930;2023-09-18T14:59:01;24.40;99.90
10336;DHT22;5213;53.548;9.930;2023-09-18T15:01:27;24.40;99.90
10336;DHT22;5213;53.548;9.930;2023-09-18T15:03:52;24.10;99.90
10336;DHT22;5213;53.548;9.930;2023-09-18T15:06:18;24.10;99.90
10336;DHT22;5213;53.548;9.930;2023-09-18T15:08:44;24.10;99.90
10336;DHT22;5213;53.548;9.930;2023-09-18T15:11:10;24.10;99.90
10336;DHT22;5213;53.548;9.930;2023-09-18T15:13:36;24.10;99.90
10336;DHT22;5213;53.548;9.930;2023-09-18T15:16:02;24.30;99.90
10336;DHT22;5213;53.548;9.930;2023-09-18T15:18:28;24.30;99.90
10336;DHT22;5213;53.548;9.930;2023-09-18T15:20:53;24.40;99.90
10336;DHT22;5213;53.548;9.930;2023-09-18T15:23:23;24.50;99.90
10336;DHT22;5213;53.548;9.930;2023-09-18T15:25:49;24.60;99.90
10336;DHT22;5213;53.548;9.930;2023-09-18T15:28:16;24.70;99.90
10336;DHT22;5213;53.548;9.930;2023-09-18T15:30:45;24.70;99.90
10336;DHT22;5213;53.548;9.930;2023-09-18T15:33:11;24.70;99.90
10336;DHT22;5213;53.548;9.930;2023-09-18T15:35:37;24.60;99.90
10336;DHT22;5213;53.548;9.930;2023-09-18T15:38:03;24.50;99.90
10336;DHT22;5213;53.548;9.930;2023-09-18T15:40:29;24.40;99.90
10336;DHT22;5213;53.548;9.930;2023-09-18T15:42:54;24.40;99.90
10336;DHT22;5213;53.548;9.930;2023-09-18T15:45:20;24.20;99.90
10336;DHT22;5213;53.548;9.930;2023-09-18T15:47:46;24.30;99.90
10336;DHT22;5213;53.548;9.930;2023-09-18T15:50:12;24.40;99.90
10336;DHT22;5213;53.548;9.930;2023-09-18T15:52:38;24.40;99.90
10336;DHT22;5213;53.548;9.930;2023-09-18T15:55:04;24.30;99.90
10336;DHT22;5213;53.548;9.930;2023-09-18T15:57:34;24.40;99.90
10336;DHT22;5213;53.548;9.930;2023-09-18T16:00:04;24.30;99.90
10336;DHT22;5213;53.548;9.930;2023-09-18T16:02:34;24.30;99.90
10336;DHT22;5213;53.548;9.930;2023-09-18T16:05:00;24.20;99.90
10336;DHT22;5213;53.548;9.930;2023-09-18T16:07:30;24.10;99.90
10336;DHT22;5213;53.548;9.930;2023-09-18T16:09:56;24.10;99.90
10336;DHT22;5213;53.548;9.930;2023-09-18T16:12:23;24.10;99.90
10336;DHT22;5213;53.548;9.930;2023-09-18T16:14:48;24.00;99.90